sensor_id;sensor_type;location;lat;lon;timestamp;P1;durP1;ratioP1;P2;durP2;ratioP2
33794;SDS011;51430;52.242;21.118;2024-02-15T00:00:12;11.70;;;7.90;;
33794;SDS011;51430;52.242;21.118;2024-02-15T00:03:03;12.10;;;7.80;;
33794;SDS011;51430;52.242;21.118;2024-02-15T00:05:35;12.20;;;7.90;;
33794;SDS011;51430;52.242;21.118;2024-02-15T00:08:04;11.70;;;7.50;;
33794;SDS011;51430;52.242;21.118;2024-02-15T00:10:32;11.50;;;8.00;;
33794;SDS011;51430;52.242;21.118;2024-02-15T00:13:02;12.40;;;7.90;;
33794;SDS011;51430;52.242;21.118;2024-02-15T00:15:30;11.50;;;7.50;;
33794;SDS011;51430;52.242;21.118;2024-02-15T00:17:58;12.20;;;7.80;;
33794;SDS011;51430;52.242;21.118;2024-02-15T00:20:26;10.90;;;7.30;;
33794;SDS011;51430;52.242;21.118;2024-02-15T00:22:55;10.10;;;7.20;;
33794;SDS011;51430;52.242;21.118;2024-02-15T00:25:23;12.70;;;7.70;;
33794;SDS011;51430;52.242;21.118;2024-02-15T00:27:53;12.60;;;7.60;;
33794;SDS011;51430;52.242;21.118;2024-02-15T00:30:22;11.90;;;7.50;;
33794;SDS011;51430;52.242;21.118;2024-02-15T00:32:50;12.10;;;7.60;;
33794;SDS011;51430;52.242;21.118;2024-02-15T00:35:19;11.40;;;8.00;;
33794;SDS011;51430;52.242;21.118;2024-02-15T00:37:47;11.40;;;7.50;;
33794;SDS011;51430;52.242;21.118;2024-02-15T00:40:17;12.00;;;7.60;;
33794;SDS011;51430;52.242;21.118;2024-02-15T00:42:45;11.80;;;7.60;;
33794;SDS011;51430;52.242;21.118;2024-02-15T00:45:13;11.90;;;7.50;;
33794;SDS011;51430;52.242;21.118;2024-02-15T00:47:42;11.10;;;7.50;;
33794;SDS011;51430;52.242;21.118;2024-02-15T00:50:11;10.00;;;7.30;;
33794;SDS011;51430;52.242;21.118;2024-02-15T00:57:00;11.50;;;7.80;;
33794;SDS011;51430;52.242;21.118;2024-02-15T00:59:28;10.90;;;7.40;;
33794;SDS011;51430;52.242;21.118;2024-02-15T01:01:57;11.00;;;7.40;;
33794;SDS011;51430;52.242;21.118;2024-02-15T01:04:25;11.20;;;7.80;;
33794;SDS011;51430;52.242;21.118;2024-02-15T01:06:53;12.60;;;7.70;;
33794;SDS011;51430;52.242;21.118;2024-02-15T01:09:21;11.00;;;7.60;;
33794;SDS011;51430;52.242;21.118;2024-02-15T01:11:49;14.20;;;7.70;;
33794;SDS011;51430;52.242;21.118;2024-02-15T01:14:18;10.70;;;7.40;;
33794;SDS011;51430;52.242;21.118;2024-02-15T01:16:47;11.90;;;7.60;;
33794;SDS011;51430;52.242;21.118;2024-02-15T01:19:15;10.50;;;7.50;;
33794;SDS011;51430;52.242;21.118;2024-02-15T01:21:43;11.10;;;7.80;;
33794;SDS011;51430;52.242;21.118;2024-02-15T01:24:14;11.20;;;7.40;;
33794;SDS011;51430;52.242;21.118;2024-02-15T01:26:42;11.80;;;7.80;;
33794;SDS011;51430;52.242;21.118;2024-02-15T01:32:43;10.00;;;7.40;;
33794;SDS011;51430;52.242;21.118;2024-02-15T01:35:11;12.40;;;7.60;;
33794;SDS011;51430;52.242;21.118;2024-02-15T01:37:39;12.50;;;7.80;;
33794;SDS011;51430;52.242;21.118;2024-02-15T01:40:07;10.40;;;7.90;;
33794;SDS011;51430;52.242;21.118;2024-02-15T01:42:38;13.20;;;7.70;;
33794;SDS011;51430;52.242;21.118;2024-02-15T01:45:07;12.30;;;7.90;;
33794;SDS011;51430;52.242;21.118;2024-02-15T01:47:38;10.40;;;7.90;;
33794;SDS011;51430;52.242;21.118;2024-02-15T01:50:12;11.60;;;7.90;;
33794;SDS011;51430;52.242;21.118;2024-02-15T01:52:41;11.00;;;8.00;;
33794;SDS011;51430;52.242;21.118;2024-02-15T01:55:11;12.10;;;8.20;;
33794;SDS011;51430;52.242;21.118;2024-02-15T01:57:40;12.20;;;8.00;;
33794;SDS011;51430;52.242;21.118;2024-02-15T02:00:13;12.10;;;8.10;;
33794;SDS011;51430;52.242;21.118;2024-02-15T02:02:43;11.00;;;7.90;;
33794;SDS011;51430;52.242;21.118;2024-02-15T02:05:15;12.00;;;7.80;;
33794;SDS011;51430;52.242;21.118;2024-02-15T02:07:43;12.10;;;8.30;;
33794;SDS011;51430;52.242;21.118;2024-02-15T02:10:11;11.70;;;7.70;;
33794;SDS011;51430;52.242;21.118;2024-02-15T02:12:43;10.70;;;7.60;;
33794;SDS011;51430;52.242;21.118;2024-02-15T02:21:38;10.10;;;7.30;;
33794;SDS011;51430;52.242;21.118;2024-02-15T02:24:13;13.20;;;8.10;;
33794;SDS011;51430;52.242;21.118;2024-02-15T02:26:45;12.20;;;8.10;;
33794;SDS011;51430;52.242;21.118;2024-02-15T02:29:14;12.20;;;7.90;;
33794;SDS011;51430;52.242;21.118;2024-02-15T02:31:42;12.90;;;8.30;;
33794;SDS011;51430;52.242;21.118;2024-02-15T02:34:11;11.80;;;8.40;;
33794;SDS011;51430;52.242;21.118;2024-02-15T02:36:44;12.70;;;8.70;;
33794;SDS011;51430;52.242;21.118;2024-02-15T02:39:13;12.30;;;7.80;;
33794;SDS011;51430;52.242;21.118;2024-02-15T02:41:41;13.30;;;8.50;;
33794;SDS011;51430;52.242;21.118;2024-02-15T02:44:10;11.90;;;8.30;;
33794;SDS011;51430;52.242;21.118;2024-02-15T02:46:38;11.40;;;8.10;;
33794;SDS011;51430;52.242;21.118;2024-02-15T02:49:09;13.00;;;8.60;;
33794;SDS011;51430;52.242;21.118;2024-02-15T02:51:38;13.20;;;8.20;;
33794;SDS011;51430;52.242;21.118;2024-02-15T02:54:06;12.80;;;8.10;;
33794;SDS011;51430;52.242;21.118;2024-02-15T02:56:34;12.50;;;8.70;;
33794;SDS011;51430;52.242;21.118;2024-02-15T02:59:02;12.10;;;8.20;;
33794;SDS011;51430;52.242;21.118;2024-02-15T03:01:31;12.80;;;8.40;;
33794;SDS011;51430;52.242;21.118;2024-02-15T03:04:01;11.20;;;8.10;;
33794;SDS011;51430;52.242;21.118;2024-02-15T03:06:29;12.00;;;8.30;;
33794;SDS011;51430;52.242;21.118;2024-02-15T03:08:57;13.90;;;8.40;;
33794;SDS011;51430;52.242;21.118;2024-02-15T03:11:25;14.40;;;8.40;;
33794;SDS011;51430;52.242;21.118;2024-02-15T03:13:53;12.00;;;8.60;;
33794;SDS011;51430;52.242;21.118;2024-02-15T03:16:22;13.10;;;8.60;;
33794;SDS011;51430;52.242;21.118;2024-02-15T03:18:52;11.90;;;8.70;;
33794;SDS011;51430;52.242;21.118;2024-02-15T03:21:20;10.90;;;8.10;;
33794;SDS011;51430;52.242;21.118;2024-02-15T03:23:49;12.20;;;8.40;;
33794;SDS011;51430;52.242;21.118;2024-02-15T03:26:19;13.90;;;8.60;;
33794;SDS011;51430;52.242;21.118;2024-02-15T03:28:57;13.30;;;8.50;;
33794;SDS011;51430;52.242;21.118;2024-02-15T03:31:25;13.50;;;8.80;;
33794;SDS011;51430;52.242;21.118;2024-02-15T03:33:53;14.50;;;9.10;;
33794;SDS011;51430;52.242;21.118;2024-02-15T03:36:22;10.50;;;8.60;;
33794;SDS011;51430;52.242;21.118;2024-02-15T03:38:50;11.60;;;8.30;;
33794;SDS011;51430;52.242;21.118;2024-02-15T03:41:22;12.70;;;8.40;;
33794;SDS011;51430;52.242;21.118;2024-02-15T03:43:50;12.40;;;9.20;;
33794;SDS011;51430;52.242;21.118;2024-02-15T03:46:18;16.60;;;9.30;;
33794;SDS011;51430;52.242;21.118;2024-02-15T03:48:46;13.20;;;8.50;;
33794;SDS011;51430;52.242;21.118;2024-02-15T03:51:17;16.10;;;9.40;;
33794;SDS011;51430;52.242;21.118;2024-02-15T03:53:48;12.80;;;9.00;;
33794;SDS011;51430;52.242;21.118;2024-02-15T03:56:16;12.60;;;8.60;;
33794;SDS011;51430;52.242;21.118;2024-02-15T03:58:44;11.60;;;8.80;;
33794;SDS011;51430;52.242;21.118;2024-02-15T04:01:13;11.80;;;8.60;;
33794;SDS011;51430;52.242;21.118;2024-02-15T04:03:42;10.60;;;8.40;;
33794;SDS011;51430;52.242;21.118;2024-02-15T04:06:22;11.50;;;8.10;;
33794;SDS011;51430;52.242;21.118;2024-02-15T04:08:52;11.90;;;8.20;;
33794;SDS011;51430;52.242;21.118;2024-02-15T04:11:21;12.50;;;8.50;;
33794;SDS011;51430;52.242;21.118;2024-02-15T04:13:48;12.90;;;8.40;;
33794;SDS011;51430;52.242;21.118;2024-02-15T04:16:16;12.10;;;8.50;;
33794;SDS011;51430;52.242;21.118;2024-02-15T04:18:45;10.60;;;8.30;;
33794;SDS011;51430;52.242;21.118;2024-02-15T04:21:13;13.10;;;8.70;;
33794;SDS011;51430;52.242;21.118;2024-02-15T04:23:44;11.50;;;8.30;;
33794;SDS011;51430;52.242;21.118;2024-02-15T04:26:12;12.50;;;8.40;;
33794;SDS011;51430;52.242;21.118;2024-02-15T04:28:41;10.30;;;8.10;;
33794;SDS011;51430;52.242;21.118;2024-02-15T04:31:09;11.30;;;9.00;;
33794;SDS011;51430;52.242;21.118;2024-02-15T04:33:39;12.40;;;8.60;;
33794;SDS011;51430;52.242;21.118;2024-02-15T04:36:08;12.30;;;8.70;;
33794;SDS011;51430;52.242;21.118;2024-02-15T04:38:36;12.10;;;8.50;;
33794;SDS011;51430;52.242;21.118;2024-02-15T04:41:06;12.20;;;8.60;;
33794;SDS011;51430;52.242;21.118;2024-02-15T04:43:37;11.90;;;8.00;;
33794;SDS011;51430;52.242;21.118;2024-02-15T04:46:08;12.90;;;8.70;;
33794;SDS011;51430;52.242;21.118;2024-02-15T04:48:37;12.20;;;8.60;;
33794;SDS011;51430;52.242;21.118;2024-02-15T04:51:05;13.60;;;8.90;;
33794;SDS011;51430;52.242;21.118;2024-02-15T04:53:33;11.10;;;8.30;;
33794;SDS011;51430;52.242;21.118;2024-02-15T04:56:01;11.90;;;8.80;;
33794;SDS011;51430;52.242;21.118;2024-02-15T05:02:39;13.20;;;8.40;;
33794;SDS011;51430;52.242;21.118;2024-02-15T05:05:09;13.00;;;8.70;;
33794;SDS011;51430;52.242;21.118;2024-02-15T05:07:38;12.10;;;8.30;;
33794;SDS011;51430;52.242;21.118;2024-02-15T05:10:08;12.20;;;8.70;;
33794;SDS011;51430;52.242;21.118;2024-02-15T05:16:44;11.50;;;8.40;;
33794;SDS011;51430;52.242;21.118;2024-02-15T05:19:15;11.60;;;8.50;;
33794;SDS011;51430;52.242;21.118;2024-02-15T05:21:45;14.00;;;9.10;;
33794;SDS011;51430;52.242;21.118;2024-02-15T05:24:17;13.30;;;9.10;;
33794;SDS011;51430;52.242;21.118;2024-02-15T05:26:47;12.60;;;9.20;;
33794;SDS011;51430;52.242;21.118;2024-02-15T05:29:16;13.70;;;8.80;;
33794;SDS011;51430;52.242;21.118;2024-02-15T05:31:44;12.80;;;9.20;;
33794;SDS011;51430;52.242;21.118;2024-02-15T05:34:12;12.00;;;8.90;;
33794;SDS011;51430;52.242;21.118;2024-02-15T05:36:41;13.10;;;9.10;;
33794;SDS011;51430;52.242;21.118;2024-02-15T05:39:09;14.00;;;9.10;;
33794;SDS011;51430;52.242;21.118;2024-02-15T05:41:39;12.10;;;8.80;;
33794;SDS011;51430;52.242;21.118;2024-02-15T05:44:07;12.50;;;9.20;;
33794;SDS011;51430;52.242;21.118;2024-02-15T05:46:37;12.20;;;9.20;;
33794;SDS011;51430;52.242;21.118;2024-02-15T05:49:07;12.20;;;8.80;;
33794;SDS011;51430;52.242;21.118;2024-02-15T05:51:41;11.50;;;9.10;;
33794;SDS011;51430;52.242;21.118;2024-02-15T05:54:12;12.20;;;8.90;;
33794;SDS011;51430;52.242;21.118;2024-02-15T05:56:41;13.80;;;9.40;;
33794;SDS011;51430;52.242;21.118;2024-02-15T05:59:10;12.50;;;9.10;;
33794;SDS011;51430;52.242;21.118;2024-02-15T06:01:39;12.10;;;9.10;;
33794;SDS011;51430;52.242;21.118;2024-02-15T06:04:09;14.00;;;9.10;;
33794;SDS011;51430;52.242;21.118;2024-02-15T06:06:38;14.20;;;9.60;;
33794;SDS011;51430;52.242;21.118;2024-02-15T06:09:06;13.80;;;9.50;;
33794;SDS011;51430;52.242;21.118;2024-02-15T06:11:37;16.60;;;9.50;;
33794;SDS011;51430;52.242;21.118;2024-02-15T06:14:05;13.20;;;9.40;;
33794;SDS011;51430;52.242;21.118;2024-02-15T06:16:41;12.70;;;9.30;;
33794;SDS011;51430;52.242;21.118;2024-02-15T06:19:11;12.20;;;9.40;;
33794;SDS011;51430;52.242;21.118;2024-02-15T06:21:41;12.70;;;9.20;;
33794;SDS011;51430;52.242;21.118;2024-02-15T06:24:09;12.80;;;9.20;;
33794;SDS011;51430;52.242;21.118;2024-02-15T06:26:38;12.50;;;9.50;;
33794;SDS011;51430;52.242;21.118;2024-02-15T06:29:06;13.80;;;9.50;;
33794;SDS011;51430;52.242;21.118;2024-02-15T06:31:53;15.60;;;9.90;;
33794;SDS011;51430;52.242;21.118;2024-02-15T06:34:42;13.80;;;10.00;;
33794;SDS011;51430;52.242;21.118;2024-02-15T06:37:35;14.90;;;10.40;;
33794;SDS011;51430;52.242;21.118;2024-02-15T06:40:23;15.10;;;10.20;;
33794;SDS011;51430;52.242;21.118;2024-02-15T06:42:53;13.70;;;10.90;;
33794;SDS011;51430;52.242;21.118;2024-02-15T06:45:21;16.50;;;11.40;;
33794;SDS011;51430;52.242;21.118;2024-02-15T06:47:50;17.10;;;11.30;;
33794;SDS011;51430;52.242;21.118;2024-02-15T06:50:18;14.00;;;11.50;;
33794;SDS011;51430;52.242;21.118;2024-02-15T06:52:49;16.60;;;12.10;;
33794;SDS011;51430;52.242;21.118;2024-02-15T06:55:19;17.10;;;12.50;;
33794;SDS011;51430;52.242;21.118;2024-02-15T07:00:44;18.90;;;13.40;;
33794;SDS011;51430;52.242;21.118;2024-02-15T07:03:12;17.20;;;12.90;;
33794;SDS011;51430;52.242;21.118;2024-02-15T07:05:40;17.40;;;12.80;;
33794;SDS011;51430;52.242;21.118;2024-02-15T07:08:11;18.60;;;14.10;;
33794;SDS011;51430;52.242;21.118;2024-02-15T07:10:40;23.40;;;13.70;;
33794;SDS011;51430;52.242;21.118;2024-02-15T07:13:08;19.60;;;13.80;;
33794;SDS011;51430;52.242;21.118;2024-02-15T07:15:38;18.50;;;14.00;;
33794;SDS011;51430;52.242;21.118;2024-02-15T07:18:06;19.00;;;14.60;;
33794;SDS011;51430;52.242;21.118;2024-02-15T07:20:35;18.50;;;15.10;;
33794;SDS011;51430;52.242;21.118;2024-02-15T07:23:03;18.90;;;14.40;;
33794;SDS011;51430;52.242;21.118;2024-02-15T07:25:33;20.10;;;14.30;;
33794;SDS011;51430;52.242;21.118;2024-02-15T07:28:01;20.20;;;15.10;;
33794;SDS011;51430;52.242;21.118;2024-02-15T07:30:29;21.40;;;15.00;;
33794;SDS011;51430;52.242;21.118;2024-02-15T07:32:57;19.80;;;15.80;;
33794;SDS011;51430;52.242;21.118;2024-02-15T07:35:27;19.40;;;15.50;;
33794;SDS011;51430;52.242;21.118;2024-02-15T07:37:58;21.40;;;15.80;;
33794;SDS011;51430;52.242;21.118;2024-02-15T07:40:28;20.80;;;15.20;;
33794;SDS011;51430;52.242;21.118;2024-02-15T07:42:56;19.60;;;16.30;;
33794;SDS011;51430;52.242;21.118;2024-02-15T07:51:06;21.20;;;14.10;;
33794;SDS011;51430;52.242;21.118;2024-02-15T07:53:37;21.60;;;16.60;;
33794;SDS011;51430;52.242;21.118;2024-02-15T07:56:05;22.50;;;17.50;;
33794;SDS011;51430;52.242;21.118;2024-02-15T07:58:34;22.10;;;17.00;;
33794;SDS011;51430;52.242;21.118;2024-02-15T08:01:02;20.40;;;16.80;;
33794;SDS011;51430;52.242;21.118;2024-02-15T08:03:35;23.30;;;16.80;;
33794;SDS011;51430;52.242;21.118;2024-02-15T08:06:04;21.20;;;16.80;;
33794;SDS011;51430;52.242;21.118;2024-02-15T08:08:34;24.20;;;17.70;;
33794;SDS011;51430;52.242;21.118;2024-02-15T08:11:03;25.70;;;17.60;;
33794;SDS011;51430;52.242;21.118;2024-02-15T08:13:32;24.90;;;17.50;;
33794;SDS011;51430;52.242;21.118;2024-02-15T08:16:00;23.40;;;18.10;;
33794;SDS011;51430;52.242;21.118;2024-02-15T08:18:28;27.50;;;19.20;;
33794;SDS011;51430;52.242;21.118;2024-02-15T08:20:58;25.00;;;19.80;;
33794;SDS011;51430;52.242;21.118;2024-02-15T08:23:26;24.50;;;18.60;;
33794;SDS011;51430;52.242;21.118;2024-02-15T08:25:54;25.30;;;19.90;;
33794;SDS011;51430;52.242;21.118;2024-02-15T08:28:22;23.60;;;18.90;;
33794;SDS011;51430;52.242;21.118;2024-02-15T08:30:52;27.00;;;20.10;;
33794;SDS011;51430;52.242;21.118;2024-02-15T08:33:23;27.40;;;19.70;;
33794;SDS011;51430;52.242;21.118;2024-02-15T08:35:52;27.70;;;20.70;;
33794;SDS011;51430;52.242;21.118;2024-02-15T08:38:23;26.50;;;20.60;;
33794;SDS011;51430;52.242;21.118;2024-02-15T08:40:51;25.80;;;21.70;;
33794;SDS011;51430;52.242;21.118;2024-02-15T08:43:20;27.10;;;20.80;;
33794;SDS011;51430;52.242;21.118;2024-02-15T08:45:49;27.10;;;21.90;;
33794;SDS011;51430;52.242;21.118;2024-02-15T08:48:19;29.80;;;22.10;;
33794;SDS011;51430;52.242;21.118;2024-02-15T08:50:53;26.70;;;20.60;;
33794;SDS011;51430;52.242;21.118;2024-02-15T08:53:21;28.10;;;21.50;;
33794;SDS011;51430;52.242;21.118;2024-02-15T08:55:50;30.10;;;21.20;;
33794;SDS011;51430;52.242;21.118;2024-02-15T08:58:20;28.10;;;21.60;;
33794;SDS011;51430;52.242;21.118;2024-02-15T09:00:49;27.30;;;22.10;;
33794;SDS011;51430;52.242;21.118;2024-02-15T09:03:17;29.10;;;23.00;;
33794;SDS011;51430;52.242;21.118;2024-02-15T09:05:47;31.40;;;23.00;;
33794;SDS011;51430;52.242;21.118;2024-02-15T09:08:19;30.20;;;23.90;;
33794;SDS011;51430;52.242;21.118;2024-02-15T09:10:49;28.70;;;22.50;;
33794;SDS011;51430;52.242;21.118;2024-02-15T09:13:21;30.60;;;23.40;;
33794;SDS011;51430;52.242;21.118;2024-02-15T09:15:50;29.40;;;23.70;;
33794;SDS011;51430;52.242;21.118;2024-02-15T09:18:18;27.70;;;22.30;;
33794;SDS011;51430;52.242;21.118;2024-02-15T09:20:49;30.20;;;22.60;;
33794;SDS011;51430;52.242;21.118;2024-02-15T09:23:23;30.00;;;24.50;;
33794;SDS011;51430;52.242;21.118;2024-02-15T09:25:54;30.50;;;24.70;;
33794;SDS011;51430;52.242;21.118;2024-02-15T09:28:22;30.70;;;23.60;;
33794;SDS011;51430;52.242;21.118;2024-02-15T09:30:50;29.80;;;22.60;;
33794;SDS011;51430;52.242;21.118;2024-02-15T09:33:19;29.80;;;22.60;;
33794;SDS011;51430;52.242;21.118;2024-02-15T09:35:48;31.20;;;23.30;;
33794;SDS011;51430;52.242;21.118;2024-02-15T09:38:38;25.80;;;19.00;;
33794;SDS011;51430;52.242;21.118;2024-02-15T09:41:06;27.80;;;21.40;;
33794;SDS011;51430;52.242;21.118;2024-02-15T09:43:35;31.80;;;22.70;;
33794;SDS011;51430;52.242;21.118;2024-02-15T09:46:03;30.20;;;22.60;;
33794;SDS011;51430;52.242;21.118;2024-02-15T09:48:32;28.60;;;22.30;;
33794;SDS011;51430;52.242;21.118;2024-02-15T09:51:05;31.70;;;24.80;;
33794;SDS011;51430;52.242;21.118;2024-02-15T09:53:36;27.50;;;22.20;;
33794;SDS011;51430;52.242;21.118;2024-02-15T09:56:04;30.60;;;23.00;;
33794;SDS011;51430;52.242;21.118;2024-02-15T09:58:38;35.10;;;25.70;;
33794;SDS011;51430;52.242;21.118;2024-02-15T10:01:06;32.10;;;23.10;;
33794;SDS011;51430;52.242;21.118;2024-02-15T10:03:39;31.60;;;24.70;;
33794;SDS011;51430;52.242;21.118;2024-02-15T10:06:08;30.20;;;22.90;;
33794;SDS011;51430;52.242;21.118;2024-02-15T10:08:37;33.30;;;23.60;;
33794;SDS011;51430;52.242;21.118;2024-02-15T10:11:06;33.20;;;25.40;;
33794;SDS011;51430;52.242;21.118;2024-02-15T10:13:38;30.10;;;24.00;;
33794;SDS011;51430;52.242;21.118;2024-02-15T10:16:25;33.00;;;25.80;;
33794;SDS011;51430;52.242;21.118;2024-02-15T10:18:56;32.40;;;26.00;;
33794;SDS011;51430;52.242;21.118;2024-02-15T10:21:39;35.20;;;28.40;;
33794;SDS011;51430;52.242;21.118;2024-02-15T10:24:10;30.00;;;26.70;;
33794;SDS011;51430;52.242;21.118;2024-02-15T10:26:39;40.40;;;34.00;;
33794;SDS011;51430;52.242;21.118;2024-02-15T10:29:14;33.80;;;27.90;;
33794;SDS011;51430;52.242;21.118;2024-02-15T10:31:54;34.00;;;27.20;;
33794;SDS011;51430;52.242;21.118;2024-02-15T10:34:24;35.40;;;28.10;;
33794;SDS011;51430;52.242;21.118;2024-02-15T10:37:10;36.20;;;28.90;;
33794;SDS011;51430;52.242;21.118;2024-02-15T10:39:40;37.20;;;29.80;;
33794;SDS011;51430;52.242;21.118;2024-02-15T10:42:11;37.80;;;30.30;;
33794;SDS011;51430;52.242;21.118;2024-02-15T10:44:41;37.40;;;30.40;;
33794;SDS011;51430;52.242;21.118;2024-02-15T10:47:12;35.70;;;29.90;;
33794;SDS011;51430;52.242;21.118;2024-02-15T10:49:40;39.20;;;31.00;;
33794;SDS011;51430;52.242;21.118;2024-02-15T10:52:11;38.20;;;31.50;;
33794;SDS011;51430;52.242;21.118;2024-02-15T10:54:46;38.60;;;30.30;;
33794;SDS011;51430;52.242;21.118;2024-02-15T10:57:22;41.60;;;33.30;;
33794;SDS011;51430;52.242;21.118;2024-02-15T10:59:57;38.90;;;32.60;;
33794;SDS011;51430;52.242;21.118;2024-02-15T11:09:02;31.80;;;25.40;;
33794;SDS011;51430;52.242;21.118;2024-02-15T11:11:31;34.90;;;28.70;;
33794;SDS011;51430;52.242;21.118;2024-02-15T11:16:59;35.60;;;29.50;;
33794;SDS011;51430;52.242;21.118;2024-02-15T11:19:43;37.10;;;30.20;;
33794;SDS011;51430;52.242;21.118;2024-02-15T11:22:15;55.20;;;47.40;;
33794;SDS011;51430;52.242;21.118;2024-02-15T11:24:51;47.50;;;39.70;;
33794;SDS011;51430;52.242;21.118;2024-02-15T11:27:27;36.40;;;31.70;;
33794;SDS011;51430;52.242;21.118;2024-02-15T11:29:57;33.40;;;29.20;;
33794;SDS011;51430;52.242;21.118;2024-02-15T11:32:44;35.40;;;29.10;;
33794;SDS011;51430;52.242;21.118;2024-02-15T11:40:20;34.10;;;29.30;;
33794;SDS011;51430;52.242;21.118;2024-02-15T11:42:55;32.20;;;28.40;;
33794;SDS011;51430;52.242;21.118;2024-02-15T11:49:20;30.70;;;23.60;;
33794;SDS011;51430;52.242;21.118;2024-02-15T11:51:50;36.80;;;28.90;;
33794;SDS011;51430;52.242;21.118;2024-02-15T12:00:38;33.30;;;24.40;;
33794;SDS011;51430;52.242;21.118;2024-02-15T12:03:26;30.10;;;25.00;;
33794;SDS011;51430;52.242;21.118;2024-02-15T12:06:30;30.50;;;25.10;;
33794;SDS011;51430;52.242;21.118;2024-02-15T12:09:18;30.00;;;26.00;;
33794;SDS011;51430;52.242;21.118;2024-02-15T12:12:09;33.30;;;27.90;;
33794;SDS011;51430;52.242;21.118;2024-02-15T12:14:59;45.40;;;36.70;;
33794;SDS011;51430;52.242;21.118;2024-02-15T12:17:50;37.50;;;29.90;;
33794;SDS011;51430;52.242;21.118;2024-02-15T12:20:37;62.10;;;47.30;;
33794;SDS011;51430;52.242;21.118;2024-02-15T12:23:05;29.10;;;25.90;;
33794;SDS011;51430;52.242;21.118;2024-02-15T12:25:35;28.80;;;24.60;;
33794;SDS011;51430;52.242;21.118;2024-02-15T12:28:04;36.00;;;30.60;;
33794;SDS011;51430;52.242;21.118;2024-02-15T12:30:34;30.20;;;24.70;;
33794;SDS011;51430;52.242;21.118;2024-02-15T12:33:12;32.60;;;25.40;;
33794;SDS011;51430;52.242;21.118;2024-02-15T12:35:48;29.50;;;25.30;;
33794;SDS011;51430;52.242;21.118;2024-02-15T12:38:20;29.00;;;24.00;;
33794;SDS011;51430;52.242;21.118;2024-02-15T12:40:50;32.50;;;28.80;;
33794;SDS011;51430;52.242;21.118;2024-02-15T12:43:18;31.50;;;26.20;;
33794;SDS011;51430;52.242;21.118;2024-02-15T12:45:46;30.10;;;24.60;;
33794;SDS011;51430;52.242;21.118;2024-02-15T12:48:18;27.60;;;24.40;;
33794;SDS011;51430;52.242;21.118;2024-02-15T12:50:47;26.90;;;23.40;;
33794;SDS011;51430;52.242;21.118;2024-02-15T12:53:21;27.70;;;24.00;;
33794;SDS011;51430;52.242;21.118;2024-02-15T12:55:53;28.70;;;24.10;;
33794;SDS011;51430;52.242;21.118;2024-02-15T12:58:27;40.50;;;32.90;;
33794;SDS011;51430;52.242;21.118;2024-02-15T13:00:57;49.30;;;41.40;;
33794;SDS011;51430;52.242;21.118;2024-02-15T13:03:26;58.40;;;45.90;;
33794;SDS011;51430;52.242;21.118;2024-02-15T13:05:56;74.70;;;52.20;;
33794;SDS011;51430;52.242;21.118;2024-02-15T13:08:25;33.40;;;28.60;;
33794;SDS011;51430;52.242;21.118;2024-02-15T13:10:55;36.00;;;29.30;;
33794;SDS011;51430;52.242;21.118;2024-02-15T13:13:25;54.10;;;45.60;;
33794;SDS011;51430;52.242;21.118;2024-02-15T13:15:55;43.20;;;34.40;;
33794;SDS011;51430;52.242;21.118;2024-02-15T13:18:24;32.90;;;28.80;;
33794;SDS011;51430;52.242;21.118;2024-02-15T13:20:57;31.00;;;25.40;;
33794;SDS011;51430;52.242;21.118;2024-02-15T13:23:32;27.80;;;23.70;;
33794;SDS011;51430;52.242;21.118;2024-02-15T13:26:03;28.30;;;23.20;;
33794;SDS011;51430;52.242;21.118;2024-02-15T13:28:54;27.60;;;19.80;;
33794;SDS011;51430;52.242;21.118;2024-02-15T13:31:22;30.00;;;21.70;;
33794;SDS011;51430;52.242;21.118;2024-02-15T13:33:51;26.80;;;21.70;;
33794;SDS011;51430;52.242;21.118;2024-02-15T13:36:21;27.50;;;22.60;;
33794;SDS011;51430;52.242;21.118;2024-02-15T13:38:56;27.40;;;22.10;;
33794;SDS011;51430;52.242;21.118;2024-02-15T13:41:30;26.00;;;20.50;;
33794;SDS011;51430;52.242;21.118;2024-02-15T13:43:58;25.80;;;20.90;;
33794;SDS011;51430;52.242;21.118;2024-02-15T13:46:26;23.80;;;19.90;;
33794;SDS011;51430;52.242;21.118;2024-02-15T13:48:54;27.50;;;20.80;;
33794;SDS011;51430;52.242;21.118;2024-02-15T13:51:24;24.50;;;20.00;;
33794;SDS011;51430;52.242;21.118;2024-02-15T13:53:52;34.10;;;28.30;;
33794;SDS011;51430;52.242;21.118;2024-02-15T14:00:32;49.30;;;38.00;;
33794;SDS011;51430;52.242;21.118;2024-02-15T14:03:05;42.50;;;32.90;;
33794;SDS011;51430;52.242;21.118;2024-02-15T14:09:41;25.80;;;19.70;;
33794;SDS011;51430;52.242;21.118;2024-02-15T14:12:09;25.90;;;19.90;;
33794;SDS011;51430;52.242;21.118;2024-02-15T14:14:42;26.70;;;19.80;;
33794;SDS011;51430;52.242;21.118;2024-02-15T14:17:10;25.80;;;19.20;;
33794;SDS011;51430;52.242;21.118;2024-02-15T14:19:38;24.70;;;20.00;;
33794;SDS011;51430;52.242;21.118;2024-02-15T14:22:06;28.40;;;22.90;;
33794;SDS011;51430;52.242;21.118;2024-02-15T14:24:36;25.60;;;19.50;;
33794;SDS011;51430;52.242;21.118;2024-02-15T14:27:24;24.40;;;17.30;;
33794;SDS011;51430;52.242;21.118;2024-02-15T14:29:52;24.70;;;19.10;;
33794;SDS011;51430;52.242;21.118;2024-02-15T14:32:39;25.90;;;18.50;;
33794;SDS011;51430;52.242;21.118;2024-02-15T14:35:31;21.90;;;18.20;;
33794;SDS011;51430;52.242;21.118;2024-02-15T14:38:07;24.80;;;18.70;;
33794;SDS011;51430;52.242;21.118;2024-02-15T14:40:39;23.80;;;17.60;;
33794;SDS011;51430;52.242;21.118;2024-02-15T14:43:12;23.30;;;17.70;;
33794;SDS011;51430;52.242;21.118;2024-02-15T14:45:44;24.50;;;18.80;;
33794;SDS011;51430;52.242;21.118;2024-02-15T14:48:12;23.50;;;18.80;;
33794;SDS011;51430;52.242;21.118;2024-02-15T14:50:42;23.40;;;18.70;;
33794;SDS011;51430;52.242;21.118;2024-02-15T14:53:12;25.90;;;18.10;;
33794;SDS011;51430;52.242;21.118;2024-02-15T14:55:43;23.00;;;18.40;;
33794;SDS011;51430;52.242;21.118;2024-02-15T14:58:14;22.50;;;19.30;;
33794;SDS011;51430;52.242;21.118;2024-02-15T15:00:46;22.80;;;18.70;;
33794;SDS011;51430;52.242;21.118;2024-02-15T15:03:15;22.80;;;18.60;;
33794;SDS011;51430;52.242;21.118;2024-02-15T15:05:45;25.80;;;18.80;;
33794;SDS011;51430;52.242;21.118;2024-02-15T15:08:33;24.00;;;18.40;;
33794;SDS011;51430;52.242;21.118;2024-02-15T15:11:22;22.10;;;18.50;;
33794;SDS011;51430;52.242;21.118;2024-02-15T15:14:09;25.20;;;19.10;;
33794;SDS011;51430;52.242;21.118;2024-02-15T15:16:37;25.00;;;18.20;;
33794;SDS011;51430;52.242;21.118;2024-02-15T15:19:05;24.10;;;18.70;;
33794;SDS011;51430;52.242;21.118;2024-02-15T15:21:33;22.00;;;18.00;;
33794;SDS011;51430;52.242;21.118;2024-02-15T15:24:01;22.10;;;17.80;;
33794;SDS011;51430;52.242;21.118;2024-02-15T15:26:31;23.70;;;18.40;;
33794;SDS011;51430;52.242;21.118;2024-02-15T15:29:02;22.00;;;17.80;;
33794;SDS011;51430;52.242;21.118;2024-02-15T15:31:32;23.40;;;17.80;;
33794;SDS011;51430;52.242;21.118;2024-02-15T15:34:03;24.20;;;18.40;;
33794;SDS011;51430;52.242;21.118;2024-02-15T15:36:32;25.40;;;20.50;;
33794;SDS011;51430;52.242;21.118;2024-02-15T15:39:01;26.10;;;21.50;;